Time,TemperatureF,DewpointF,PressureIn,WindDirection,WindDirectionDegrees,WindSpeedMPH,WindSpeedGustMPH,Humidity,HourlyPrecipIn,Conditions,Clouds,dailyrainin,SoftwareType,DateUTC
2013-01-12 00:12:00,28.4,25.0,30.32,ENE,65,2.0,3.0,86,0.00,,,0.00,weatherlink.com 1.10,2013-01-12 08:12:00,
2013-01-12 00:27:00,28.5,25.0,30.32,ENE,66,2.0,4.0,87,0.00,,,0.00,weatherlink.com 1.10,2013-01-12 08:27:00,
2013-01-12 00:42:00,28.4,25.0,30.32,ENE,66,2.0,4.0,87,0.00,,,0.00,weatherlink.com 1.10,2013-01-12 08:42:00,
2013-01-12 00:57:00,28.1,24.0,30.32,ENE,68,3.0,7.0,85,0.00,,,0.00,weatherlink.com 1.10,2013-01-12 08:57:00,
2013-01-12 01:27:00,27.2,23.0,30.32,ENE,68,3.0,3.0,83,0.00,,,0.00,weatherlink.com 1.10,2013-01-12 09:27:00,
2013-01-12 01:42:00,26.9,23.0,30.32,ENE,68,2.0,3.0,84,0.00,,,0.00,weatherlink.com 1.10,2013-01-12 09:42:00,
2013-01-12 01:57:00,26.7,23.0,30.33,ENE,68,3.0,3.0,84,0.00,,,0.00,weatherlink.com 1.10,2013-01-12 09:57:00,
2013-01-12 02:12:00,26.8,23.0,30.33,ENE,68,2.0,3.0,85,0.00,,,0.00,weatherlink.com 1.10,2013-01-12 10:12:00,
2013-01-12 02:27:00,26.9,23.0,30.33,ENE,68,2.0,3.0,85,0.00,,,0.00,weatherlink.com 1.10,2013-01-12 10:27:00,
2013-01-12 02:42:00,26.7,23.0,30.33,ENE,68,3.0,3.0,85,0.00,,,0.00,weatherlink.com 1.10,2013-01-12 10:42:00,
2013-01-12 02:57:00,26.6,23.0,30.33,ENE,68,2.0,3.0,85,0.00,,,0.00,weatherlink.com 1.10,2013-01-12 10:57:00,
2013-01-12 03:12:00,-999.0,-99.9,30.34,ENE,68,2.0,3.0,-999,0.00,,,0.00,weatherlink.com 1.10,2013-01-12 11:12:00,
2013-01-12 03:28:00,26.4,23.0,30.34,ENE,68,0.0,3.0,85,0.00,,,0.00,weatherlink.com 1.10,2013-01-12 11:28:00,
2013-01-12 03:43:00,26.3,23.0,30.34,ENE,68,3.0,3.0,86,0.00,,,0.00,weatherlink.com 1.10,2013-01-12 11:43:00,
2013-01-12 03:58:00,26.3,23.0,30.34,ENE,68,2.0,3.0,87,0.00,,,0.00,weatherlink.com 1.10,2013-01-12 11:58:00,
2013-01-12 04:13:00,26.2,23.0,30.34,ENE,68,2.0,3.0,87,0.00,,,0.00,weatherlink.com 1.10,2013-01-12 12:13:00,
2013-01-12 04:28:00,26.2,23.0,30.33,ENE,68,2.0,3.0,88,0.00,,,0.00,weatherlink.com 1.10,2013-01-12 12:28:00,
2013-01-12 04:43:00,26.3,23.0,30.34,ENE,68,2.0,3.0,88,0.00,,,0.00,weatherlink.com 1.10,2013-01-12 12:43:00,
2013-01-12 04:58:00,26.2,23.0,30.34,ENE,68,1.0,3.0,88,0.00,,,0.00,weatherlink.com 1.10,2013-01-12 12:58:00,
2013-01-12 05:13:00,26.1,23.0,30.34,ENE,68,3.0,3.0,88,0.00,,,0.00,weatherlink.com 1.10,2013-01-12 13:13:00,
2013-01-12 05:28:00,26.0,23.0,30.34,ENE,68,2.0,3.0,88,0.00,,,0.00,weatherlink.com 1.10,2013-01-12 13:28:00,
2013-01-12 05:43:00,25.9,23.0,30.34,ENE,68,2.0,3.0,88,0.00,,,0.00,weatherlink.com 1.10,2013-01-12 13:43:00,
2013-01-12 05:58:00,25.9,23.0,30.34,ENE,68,2.0,3.0,89,0.00,,,0.00,weatherlink.com 1.10,2013-01-12 13:58:00,
2013-01-12 06:13:00,26.0,23.0,30.34,ENE,68,2.0,3.0,89,0.00,,,0.00,weatherlink.com 1.10,2013-01-12 14:13:00,
2013-01-12 06:28:00,26.1,23.0,30.34,ENE,68,2.0,3.0,89,0.00,,,0.00,weatherlink.com 1.10,2013-01-12 14:28:00,
2013-01-12 06:43:00,26.2,23.0,30.35,ENE,68,1.0,3.0,89,0.00,,,0.00,weatherlink.com 1.10,2013-01-12 14:43:00,
2013-01-12 06:58:00,26.3,24.0,30.35,ENE,68,0.0,3.0,89,0.00,,,0.00,weatherlink.com 1.10,2013-01-12 14:58:00,
2013-01-12 07:13:00,26.3,24.0,30.36,ENE,68,1.0,3.0,89,0.00,,,0.00,weatherlink.com 1.10,2013-01-12 15:13:00,
2013-01-12 07:28:00,26.0,23.0,30.36,ENE,68,0.0,3.0,88,0.00,,,0.00,weatherlink.com 1.10,2013-01-12 15:28:00,
2013-01-12 07:43:00,26.0,23.0,30.36,ENE,68,1.0,3.0,88,0.00,,,0.00,weatherlink.com 1.10,2013-01-12 15:43:00,
2013-01-12 07:58:00,25.9,22.0,30.37,ENE,68,1.0,3.0,86,0.00,,,0.00,weatherlink.com 1.10,2013-01-12 15:58:00,
2013-01-12 08:13:00,26.0,22.0,30.37,ENE,68,0.0,4.0,85,0.00,,,0.00,weatherlink.com 1.10,2013-01-12 16:13:00,
2013-01-12 08:28:00,26.0,22.0,30.37,ENE,68,0.0,3.0,86,0.00,,,0.00,weatherlink.com 1.10,2013-01-12 16:28:00,
2013-01-12 08:43:00,26.1,23.0,30.37,ENE,68,0.0,2.0,87,0.00,,,0.00,weatherlink.com 1.10,2013-01-12 16:43:00,
2013-01-12 08:58:00,26.3,23.0,30.38,ENE,68,0.0,2.0,88,0.00,,,0.00,weatherlink.com 1.10,2013-01-12 16:58:00,
2013-01-12 09:13:00,26.5,23.0,30.38,ENE,68,1.0,3.0,87,0.00,,,0.00,weatherlink.com 1.10,2013-01-12 17:13:00,
2013-01-12 09:28:00,27.1,23.0,30.38,ENE,68,0.0,3.0,85,0.00,,,0.00,weatherlink.com 1.10,2013-01-12 17:28:00,
2013-01-12 09:43:00,27.4,24.0,30.38,ENE,68,0.0,2.0,88,0.00,,,0.00,weatherlink.com 1.10,2013-01-12 17:43:00,
2013-01-12 09:59:00,28.1,25.0,30.39,ENE,68,0.0,3.0,89,0.00,,,0.00,weatherlink.com 1.10,2013-01-12 17:59:00,
2013-01-12 10:13:00,29.5,26.0,30.39,ENE,68,0.0,2.0,88,0.00,,,0.00,weatherlink.com 1.10,2013-01-12 18:13:00,
2013-01-12 10:28:00,31.0,27.0,30.39,ENE,68,0.0,5.0,84,0.00,,,0.00,weatherlink.com 1.10,2013-01-12 18:28:00,
2013-01-12 10:43:00,30.8,26.0,30.40,ENE,69,0.0,4.0,81,0.00,,,0.00,weatherlink.com 1.10,2013-01-12 18:43:00,
2013-01-12 10:58:00,31.8,25.0,30.39,ENE,69,0.0,4.0,77,0.00,,,0.00,weatherlink.com 1.10,2013-01-12 18:58:00,
2013-01-12 11:13:00,33.2,23.0,30.39,ENE,59,0.0,9.0,66,0.00,,,0.00,weatherlink.com 1.10,2013-01-12 19:13:00,
2013-01-12 11:28:00,34.2,23.0,30.39,NNW,332,1.0,7.0,63,0.00,,,0.00,weatherlink.com 1.10,2013-01-12 19:28:00,
2013-01-12 11:44:00,34.2,24.0,30.39,SSW,202,2.0,7.0,66,0.00,,,0.00,weatherlink.com 1.10,2013-01-12 19:44:00,
2013-01-12 11:59:00,34.6,21.0,30.39,East,82,2.0,8.0,59,0.00,,,0.00,weatherlink.com 1.10,2013-01-12 19:59:00,
2013-01-12 12:14:00,34.6,21.0,30.38,NNE,31,3.0,9.0,59,0.00,,,0.00,weatherlink.com 1.10,2013-01-12 20:14:00,
2013-01-12 12:29:00,35.3,21.0,30.38,NNW,334,2.0,9.0,57,0.00,,,0.00,weatherlink.com 1.10,2013-01-12 20:29:00,
2013-01-12 12:44:00,35.7,22.0,30.38,NNE,32,4.0,8.0,57,0.00,,,0.00,weatherlink.com 1.10,2013-01-12 20:44:00,
2013-01-12 12:59:00,35.6,22.0,30.39,NW,325,3.0,8.0,57,0.00,,,0.00,weatherlink.com 1.10,2013-01-12 20:59:00,
2013-01-12 13:14:00,35.9,23.0,30.39,NW,309,6.0,12.0,59,0.00,,,0.00,weatherlink.com 1.10,2013-01-12 21:14:00,
2013-01-12 13:29:00,36.1,22.0,30.38,WNW,294,10.0,12.0,58,0.00,,,0.00,weatherlink.com 1.10,2013-01-12 21:29:00,
2013-01-12 13:44:00,35.8,23.0,30.39,WNW,303,10.0,15.0,59,0.00,,,0.00,weatherlink.com 1.10,2013-01-12 21:44:00,
2013-01-12 13:59:00,35.4,24.0,30.39,WNW,296,8.0,11.0,64,0.00,,,0.00,weatherlink.com 1.10,2013-01-12 21:59:00,
2013-01-12 14:14:00,36.0,25.0,30.39,NNW,340,5.0,11.0,64,0.00,,,0.00,weatherlink.com 1.10,2013-01-12 22:14:00,
2013-01-12 14:29:00,36.2,25.0,30.38,NNE,19,3.0,8.0,65,0.00,,,0.00,weatherlink.com 1.10,2013-01-12 22:29:00,
2013-01-12 14:44:00,36.4,26.0,30.39,NNW,338,2.0,7.0,66,0.01,,,0.01,weatherlink.com 1.10,2013-01-12 22:44:00,
2013-01-12 14:59:00,36.6,26.0,30.38,NW,310,4.0,12.0,65,0.01,,,0.01,weatherlink.com 1.10,2013-01-12 22:59:00,
2013-01-12 15:14:00,35.8,25.0,30.38,NW,306,3.0,10.0,66,0.01,,,0.01,weatherlink.com 1.10,2013-01-12 23:14:00,
2013-01-12 15:29:00,35.0,25.0,30.39,NW,319,2.0,9.0,68,0.01,,,0.01,weatherlink.com 1.10,2013-01-12 23:29:00,
2013-01-12 15:44:00,33.8,26.0,30.39,NW,309,3.0,9.0,72,0.00,,,0.01,weatherlink.com 1.10,2013-01-12 23:44:00,
2013-01-12 15:59:00,32.6,26.0,30.39,NW,313,2.0,8.0,75,0.00,,,0.01,weatherlink.com 1.10,2013-01-12 23:59:00,
2013-01-12 16:14:00,31.4,25.0,30.39,NW,314,3.0,6.0,78,0.00,,,0.01,weatherlink.com 1.10,2013-01-13 00:14:00,
2013-01-12 16:29:00,30.6,25.0,30.39,NW,318,3.0,7.0,81,0.00,,,0.01,weatherlink.com 1.10,2013-01-13 00:29:00,
2013-01-12 16:44:00,30.1,26.0,30.38,NW,318,3.0,6.0,83,0.00,,,0.01,weatherlink.com 1.10,2013-01-13 00:44:00,
2013-01-12 16:59:00,29.5,25.0,30.38,NW,325,3.0,7.0,84,0.00,,,0.01,weatherlink.com 1.10,2013-01-13 00:59:00,
2013-01-12 17:14:00,29.0,25.0,30.39,North,355,5.0,9.0,85,0.00,,,0.01,weatherlink.com 1.10,2013-01-13 01:14:00,
2013-01-12 17:29:00,28.7,25.0,30.39,North,5,5.0,7.0,86,0.00,,,0.01,weatherlink.com 1.10,2013-01-13 01:29:00,
2013-01-12 17:44:00,28.5,25.0,30.40,North,360,6.0,8.0,87,0.00,,,0.01,weatherlink.com 1.10,2013-01-13 01:44:00,
2013-01-12 17:59:00,28.5,25.0,30.40,NNE,15,4.0,7.0,88,0.00,,,0.01,weatherlink.com 1.10,2013-01-13 01:59:00,
2013-01-12 18:14:00,28.3,25.0,30.40,NNE,26,2.0,6.0,88,0.00,,,0.01,weatherlink.com 1.10,2013-01-13 02:14:00,
2013-01-12 18:29:00,28.3,25.0,30.40,NNE,15,4.0,6.0,88,0.00,,,0.01,weatherlink.com 1.10,2013-01-13 02:29:00,
2013-01-12 18:44:00,28.3,25.0,30.41,NNE,15,4.0,5.0,87,0.00,,,0.01,weatherlink.com 1.10,2013-01-13 02:44:00,
2013-01-12 18:59:00,28.1,25.0,30.40,NNE,17,2.0,4.0,88,0.00,,,0.01,weatherlink.com 1.10,2013-01-13 02:59:00,
2013-01-12 19:14:00,27.9,25.0,30.40,NNE,20,4.0,6.0,87,0.00,,,0.01,weatherlink.com 1.10,2013-01-13 03:14:00,
2013-01-12 19:29:00,27.8,25.0,30.39,NNE,29,5.0,6.0,88,0.00,,,0.01,weatherlink.com 1.10,2013-01-13 03:29:00,
2013-01-12 19:44:00,27.6,24.0,30.39,NNE,28,3.0,5.0,87,0.00,,,0.01,weatherlink.com 1.10,2013-01-13 03:44:00,
2013-01-12 19:59:00,27.4,24.0,30.39,NNE,26,3.0,7.0,87,0.00,,,0.01,weatherlink.com 1.10,2013-01-13 03:59:00,
2013-01-12 20:14:00,27.4,24.0,30.40,NNE,26,2.0,5.0,85,0.00,,,0.01,weatherlink.com 1.10,2013-01-13 04:14:00,
2013-01-12 20:29:00,27.3,23.0,30.40,NNE,26,0.0,2.0,83,0.00,,,0.01,weatherlink.com 1.10,2013-01-13 04:29:00,
2013-01-12 20:44:00,27.1,23.0,30.40,NNE,26,0.0,3.0,84,0.00,,,0.01,weatherlink.com 1.10,2013-01-13 04:44:00,
2013-01-12 20:59:00,27.0,23.0,30.41,NNE,26,0.0,2.0,85,0.00,,,0.01,weatherlink.com 1.10,2013-01-13 04:59:00,
2013-01-12 21:14:00,27.0,23.0,30.40,NNE,26,2.0,3.0,84,0.00,,,0.01,weatherlink.com 1.10,2013-01-13 05:14:00,
2013-01-12 21:29:00,26.8,22.0,30.41,NNE,26,1.0,3.0,82,0.00,,,0.01,weatherlink.com 1.10,2013-01-13 05:29:00,
2013-01-12 21:44:00,26.7,22.0,30.41,NNE,26,1.0,2.0,83,0.00,,,0.01,weatherlink.com 1.10,2013-01-13 05:44:00,
2013-01-12 21:59:00,26.6,22.0,30.41,NNE,26,2.0,3.0,83,0.00,,,0.01,weatherlink.com 1.10,2013-01-13 05:59:00,
2013-01-12 22:14:00,26.6,22.0,30.42,NNE,26,1.0,3.0,83,0.00,,,0.01,weatherlink.com 1.10,2013-01-13 06:14:00,
2013-01-12 22:29:00,26.5,23.0,30.43,NNE,26,0.0,3.0,85,0.00,,,0.01,weatherlink.com 1.10,2013-01-13 06:29:00,
2013-01-12 22:44:00,26.6,23.0,30.43,NNE,26,0.0,3.0,86,0.00,,,0.01,weatherlink.com 1.10,2013-01-13 06:44:00,
2013-01-12 22:59:00,26.8,24.0,30.43,NNE,26,0.0,0.0,88,0.00,,,0.01,weatherlink.com 1.10,2013-01-13 06:59:00,
2013-01-12 23:14:00,27.2,24.0,30.43,NNE,26,0.0,2.0,88,0.00,,,0.01,weatherlink.com 1.10,2013-01-13 07:14:00,
2013-01-12 23:29:00,27.4,24.0,30.44,NNE,26,1.0,2.0,88,0.00,,,0.01,weatherlink.com 1.10,2013-01-13 07:29:00,
2013-01-12 23:44:00,27.4,24.0,30.44,NNE,26,0.0,3.0,88,0.00,,,0.01,weatherlink.com 1.10,2013-01-13 07:44:00,
2013-01-12 23:59:00,27.7,24.0,30.43,NNE,26,0.0,2.0,87,0.00,,,0.01,weatherlink.com 1.10,2013-01-13 07:59:00,